Time;durP1;ratioP1;P1;durP2;ratioP2;P2;SDS_P1;SDS_P2;PMS_P1;PMS_P2;Temp;Humidity;BMP_temperature;BMP_pressure;BME280_temperature;BME280_humidity;BME280_pressure;Samples;Min_cycle;Max_cycle;Signal;HPM_P1;HPM_P2
2022/06/15 00:00:53;;;;;;;11.82;2.75;;;11.40;99.90;;;10.30;100.00;101682.22;4879047;28;20119;-76
2022/06/15 00:03:19;;;;;;;7.18;2.40;;;11.40;99.90;;;10.29;100.00;101689.28;4945996;28;20529;-76
2022/06/15 00:05:45;;;;;;;5.75;2.47;;;11.40;99.90;;;10.27;100.00;101685.78;4926018;28;20034;-76
2022/06/15 00:08:11;;;;;;;11.02;2.85;;;11.40;99.90;;;10.26;100.00;101677.03;4903912;28;20455;-76
2022/06/15 00:10:41;;;;;;;14.23;3.75;;;11.40;99.90;;;10.25;100.00;101677.94;4904824;28;20502;-76
2022/06/15 00:13:08;;;;;;;16.77;3.88;;;11.40;99.90;;;10.26;100.00;101671.78;4928062;28;20116;-76
2022/06/15 00:15:34;;;;;;;9.93;2.65;;;11.30;99.90;;;10.25;100.00;101671.81;4953425;28;20099;-76
2022/06/15 00:18:00;;;;;;;11.25;4.65;;;11.30;99.90;;;10.24;100.00;101667.47;4933738;28;20104;-76
2022/06/15 00:20:29;;;;;;;19.88;4.60;;;11.30;99.90;;;10.22;100.00;101669.28;4934444;28;20096;-76
2022/06/15 00:22:54;;;;;;;12.98;3.30;;;11.30;99.90;;;10.19;100.00;101661.47;4926178;28;20026;-76
2022/06/15 00:34:25;;;;;;;9.05;3.42;;;11.10;99.90;;;9.97;100.00;101672.63;4851967;28;20447;-76
2022/06/15 00:37:43;;;;;;;10.32;3.97;;;11.10;99.90;;;9.94;100.00;101672.72;4759315;29;20121;-76
2022/06/15 00:44:35;;;;;;;5.55;2.55;;;11.00;99.90;;;9.85;100.00;101675.63;4775248;29;20036;-76
2022/06/15 00:48:03;;;;;;;9.13;2.95;;;11.00;99.90;;;9.84;100.00;101681.78;4842252;28;20050;-76
2022/06/15 00:53:44;;;;;;;18.73;3.67;;;11.00;99.90;;;9.85;100.00;101675.63;4708995;29;20296;-76
2022/06/15 00:56:56;;;;;;;16.83;4.72;;;11.00;99.90;;;9.88;100.00;101685.19;4765386;28;20106;-76
2022/06/15 01:00:05;;;;;;;15.50;4.78;;;11.00;99.90;;;9.86;100.00;101683.44;4821109;28;20031;-76
2022/06/15 01:03:34;;;;;;;11.52;3.25;;;11.00;99.90;;;9.82;100.00;101680.94;4835083;28;20032;-76
2022/06/15 01:06:33;;;;;;;;;;;10.90;99.90;;;9.74;100.00;101680.28;4776394;29;20584;-76
2022/06/15 01:09:51;;;;;;;18.40;4.68;;;10.90;99.90;;;9.71;100.00;101677.75;4771060;28;20050;-76
2022/06/15 01:12:53;;;;;;;15.65;4.90;;;;;;;9.69;100.00;101679.56;4833818;29;20151;-76
2022/06/15 01:16:08;;;;;;;8.90;4.28;;;10.90;99.90;;;9.74;100.00;101685.56;4776474;28;20128;-76
2022/06/15 01:19:04;;;;;;;13.63;3.80;;;;;;;9.72;100.00;101684.72;4833575;28;20033;-76
2022/06/15 01:21:50;;;;;;;5.65;2.20;;;10.80;99.90;;;9.64;100.00;101675.31;4898393;28;20034;-76
2022/06/15 01:24:48;;;;;;;8.07;2.33;;;10.80;99.90;;;9.59;100.00;101665.81;4965602;28;20474;-76
2022/06/15 01:27:19;;;;;;;5.28;2.70;;;10.70;99.90;;;9.54;100.00;101671.19;4943917;28;20528;-76
2022/06/15 01:30:42;;;;;;;3.83;2.25;;;10.70;99.90;;;9.48;100.00;101667.88;4939353;28;20034;-76
2022/06/15 01:33:36;;;;;;;25.13;5.10;;;10.60;99.90;;;9.41;100.00;101673.28;4870254;29;20510;-76
2022/06/15 01:36:13;;;;;;;5.72;3.25;;;10.60;99.90;;;9.36;100.00;101669.06;4974336;28;20482;-76
2022/06/15 01:38:54;;;;;;;7.78;3.17;;;10.50;99.90;;;9.33;100.00;101667.41;4972097;28;20116;-76
2022/06/15 01:41:45;;;;;;;33.58;4.63;;;10.50;99.90;;;9.30;100.00;101664.81;4974467;28;20048;-76
2022/06/15 01:44:31;;;;;;;8.43;3.60;;;10.40;99.90;;;9.26;100.00;101675.47;4964728;28;20029;-76
2022/06/15 01:47:00;;;;;;;7.95;4.32;;;10.40;99.90;;;9.21;100.00;101668.56;4964172;28;20049;-76
2022/06/15 01:49:36;;;;;;;8.73;3.85;;;10.40;99.90;;;9.20;100.00;101674.72;4984380;28;20430;-76
2022/06/15 01:52:05;;;;;;;11.45;4.90;;;10.30;99.90;;;9.19;100.00;101677.38;4960271;28;20616;-76
2022/06/15 01:54:42;;;;;;;4.50;2.45;;;10.30;99.90;;;9.16;100.00;101683.59;4941147;28;20044;-77
2022/06/15 01:57:09;;;;;;;10.18;4.70;;;10.30;99.90;;;9.15;100.00;101678.38;4963170;28;20034;-76
2022/06/15 01:59:59;;;;;;;7.13;3.80;;;10.30;99.90;;;9.14;100.00;101672.25;4975910;28;20129;-76
2022/06/15 02:02:45;;;;;;;8.02;3.00;;;10.30;99.90;;;9.15;100.00;101673.09;4970831;28;20042;-76
2022/06/15 02:05:52;;;;;;;14.18;6.32;;;10.30;99.90;;;9.14;100.00;101674.03;4995370;28;20041;-76
2022/06/15 02:08:44;;;;;;;10.23;4.30;;;10.30;99.90;;;9.09;100.00;101674.13;4954642;28;20060;-76
2022/06/15 02:11:18;;;;;;;16.55;6.55;;;10.20;99.90;;;9.04;100.00;101676.88;4936121;28;20109;-76
2022/06/15 02:13:54;;;;;;;8.20;3.45;;;10.20;99.90;;;9.02;100.00;101677.81;4949084;28;20117;-76
2022/06/15 02:16:28;;;;;;;7.82;3.50;;;10.10;99.90;;;8.98;100.00;101673.53;4964221;28;20498;-76
2022/06/15 02:18:58;;;;;;;8.85;2.88;;;10.10;99.90;;;8.95;100.00;101668.38;4963902;28;20046;-76
2022/06/15 02:21:26;;;;;;;9.32;3.70;;;10.10;99.90;;;8.94;100.00;101671.88;4974719;28;20025;-76
2022/06/15 02:23:57;;;;;;;9.98;3.78;;;10.10;99.90;;;8.95;100.00;101671.00;4956208;28;20022;-77
2022/06/15 02:26:29;;;;;;;13.65;6.03;;;10.10;99.90;;;9.00;100.00;101675.22;4941318;28;20042;-76
2022/06/15 02:29:04;;;;;;;21.80;7.68;;;10.20;99.90;;;9.06;100.00;101676.84;4934918;28;20038;-76
2022/06/15 02:31:30;;;;;;;25.00;9.43;;;10.20;99.90;;;9.13;100.00;101672.28;4953217;28;20570;-76
2022/06/15 02:33:57;;;;;;;11.20;5.15;;;10.20;99.90;;;9.17;100.00;101674.78;4916566;28;20034;-76
2022/06/15 02:36:23;;;;;;;27.73;8.23;;;10.30;99.90;;;9.21;100.00;101672.97;4956633;28;20030;-76
2022/06/15 02:38:51;;;;;;;12.77;2.47;;;10.30;99.90;;;9.19;100.00;101675.63;4950477;28;20713;-76
2022/06/15 02:41:19;;;;;;;4.00;2.60;;;10.30;99.90;;;9.20;100.00;101681.72;4979580;28;20100;-76
2022/06/15 02:43:49;;;;;;;9.02;3.95;;;10.30;99.90;;;9.17;100.00;101674.78;4990101;28;20095;-76
2022/06/15 02:46:17;;;;;;;8.15;4.03;;;10.30;99.90;;;9.14;100.00;101674.03;4962339;28;20038;-75
2022/06/15 02:48:46;;;;;;;7.85;3.30;;;10.30;99.90;;;9.18;100.00;101675.69;4955589;28;21476;-76
2022/06/15 02:51:46;;;;;;;5.78;3.25;;;10.30;99.90;;;9.19;100.00;101674.75;4943969;28;20026;-76
2022/06/15 02:54:28;;;;;;;5.97;2.83;;;10.30;99.90;;;9.17;100.00;101674.78;4940103;28;20209;-76
2022/06/15 02:56:54;;;;;;;6.03;2.83;;;10.30;99.90;;;9.17;100.00;101664.28;4967577;28;20038;-76
2022/06/15 02:59:20;;;;;;;7.82;3.70;;;10.30;99.90;;;9.16;100.00;101666.97;4941871;28;20072;-76
2022/06/15 03:01:46;;;;;;;8.80;3.92;;;10.40;99.90;;;9.17;100.00;101666.06;4988641;28;20026;-76
2022/06/15 03:04:14;;;;;;;7.70;3.40;;;10.40;99.90;;;9.21;100.00;101676.44;4960158;28;20087;-76
2022/06/15 03:06:40;;;;;;;5.75;3.13;;;10.40;99.90;;;9.27;100.00;101674.56;4963317;28;20025;-76
2022/06/15 03:09:06;;;;;;;11.18;4.22;;;10.40;99.90;;;9.33;100.00;101663.88;4955830;28;20057;-76
2022/06/15 03:11:32;;;;;;;11.65;5.60;;;10.50;99.90;;;9.39;100.00;101677.72;4944784;28;20037;-76
2022/06/15 03:13:59;;;;;;;20.58;4.43;;;10.50;99.90;;;9.48;100.00;101676.66;4942083;28;20576;-76
2022/06/15 03:16:25;;;;;;;9.05;4.10;;;10.60;99.90;;;9.58;100.00;101675.47;4967823;28;20120;-77
2022/06/15 03:18:53;;;;;;;12.43;5.75;;;10.70;99.90;;;9.68;100.00;101668.19;4950299;28;20037;-77
2022/06/15 03:21:19;;;;;;;15.95;6.13;;;10.80;99.90;;;9.78;100.00;101682.81;4968648;28;20119;-76
2022/06/15 03:23:45;;;;;;;14.82;6.18;;;10.90;99.90;;;9.86;100.00;101677.34;4958513;28;20018;-76
2022/06/15 03:26:11;;;;;;;8.00;4.93;;;11.00;99.90;;;9.92;100.00;101671.91;4965987;28;20049;-76
2022/06/15 03:28:37;;;;;;;8.68;5.13;;;11.00;99.90;;;10.00;100.00;101672.53;4961906;28;20038;-76
2022/06/15 03:31:04;;;;;;;6.00;4.85;;;11.10;99.90;;;10.07;100.00;101671.44;4985323;28;20026;-76
2022/06/15 03:33:29;;;;;;;5.70;3.17;;;11.10;99.90;;;10.10;100.00;101670.50;4981549;28;20037;-76
2022/06/15 03:35:57;;;;;;;8.40;4.03;;;11.20;99.90;;;10.17;100.00;101671.16;4950109;28;20030;-76
2022/06/15 03:38:24;;;;;;;6.85;4.03;;;11.30;99.90;;;10.31;100.00;101679.56;4971320;28;21408;-76
2022/06/15 03:40:50;;;;;;;14.32;5.28;;;11.50;99.90;;;10.51;100.00;101681.56;4973265;28;20555;-76
2022/06/15 03:43:17;;;;;;;8.40;4.70;;;11.50;99.90;;;10.58;100.00;101682.25;4994034;28;20037;-76
2022/06/15 03:45:43;;;;;;;8.27;4.43;;;11.60;99.90;;;10.66;100.00;101686.34;4999980;28;20092;-76
2022/06/15 03:48:13;;;;;;;13.25;5.70;;;11.70;99.90;;;10.85;100.00;101688.41;4967024;28;20041;-76
2022/06/15 03:50:39;;;;;;;13.23;5.75;;;12.10;99.90;;;11.25;100.00;101692.34;4982112;28;20591;-76
2022/06/15 03:53:06;;;;;;;15.02;6.43;;;12.20;99.90;;;11.42;100.00;101684.72;4983968;28;20029;-76
2022/06/15 03:55:35;;;;;;;14.00;5.75;;;12.40;99.90;;;11.60;100.00;101687.66;4946668;28;20084;-76
2022/06/15 03:58:00;;;;;;;13.70;6.70;;;12.60;99.90;;;11.95;100.00;101689.03;4964450;28;20117;-76
2022/06/15 04:00:31;;;;;;;13.20;6.18;;;13.10;99.90;;;12.61;100.00;101699.72;4947438;28;20044;-76
2022/06/15 04:02:57;;;;;;;14.25;5.78;;;14.00;99.90;;;13.73;100.00;101702.13;4950333;28;20022;-76
2022/06/15 04:05:43;;;;;;;13.35;5.03;;;14.40;99.90;;;14.23;98.16;101700.75;4956856;28;20034;-76
2022/06/15 04:08:35;;;;;;;13.00;5.00;;;15.10;99.90;;;14.92;92.69;101710.72;4972706;28;20054;-76
2022/06/15 04:13:59;;;;;;;15.27;4.50;;;15.30;99.90;;;14.86;88.75;101711.91;4986905;28;21194;-76
2022/06/15 04:19:27;;;;;;;;;;;;;;;;;;;;;
2022/06/15 04:22:45;;;;;;;10.68;4.18;;;15.00;99.90;;;14.31;89.92;101714.50;4826628;28;20444;-76
2022/06/15 04:25:37;;;;;;;8.38;4.75;;;;;;;14.20;91.04;101711.50;4874419;28;20035;-76
2022/06/15 04:28:41;;;;;;;;;;;;;;;;;;;;;
2022/06/15 04:31:16;;;;;;;15.65;4.70;;;14.80;99.90;;;14.11;92.55;101710.97;4859463;28;20057;-76
2022/06/15 04:33:55;;;;;;;16.40;4.85;;;14.80;99.90;;;14.17;93.16;101707.22;4843852;28;20040;-76
2022/06/15 04:36:55;;;;;;;10.82;4.25;;;15.20;99.90;;;14.85;91.87;101720.78;4870014;28;20126;-77
2022/06/15 04:40:14;;;;;;;10.18;4.57;;;15.50;99.90;;;15.41;88.59;101731.31;4879521;28;20038;-76
2022/06/15 04:42:46;;;;;;;8.45;4.07;;;16.00;99.90;;;15.89;85.95;101724.41;4854492;28;20037;-76
2022/06/15 04:45:34;;;;;;;10.30;4.57;;;16.40;99.90;;;16.14;83.79;101724.81;4839192;28;20086;-76
2022/06/15 04:48:21;;;;;;;15.02;4.88;;;;;;;16.33;82.52;101727.34;4812461;28;20031;-76
2022/06/15 04:51:15;;;;;;;14.73;4.60;;;16.60;99.90;;;16.30;81.95;101723.97;4833650;28;20047;-76
2022/06/15 04:54:15;;;;;;;27.40;4.63;;;16.70;99.90;;;16.31;81.61;101726.56;4801395;28;20107;-76
2022/06/15 04:57:07;;;;;;;15.38;4.20;;;16.70;99.90;;;16.31;81.88;101733.69;4834265;23;20233;-77
2022/06/15 05:00:04;;;;;;;14.23;4.45;;;16.70;99.90;;;16.36;81.72;101739.59;4839032;28;20054;-76
2022/06/15 05:03:04;;;;;;;11.30;3.70;;;16.80;99.90;;;16.44;81.71;101741.84;4837749;28;20365;-78
2022/06/15 05:06:14;;;;;;;13.68;4.10;;;16.90;99.90;;;16.50;81.50;101746.78;4859251;28;20048;-76
2022/06/15 05:09:29;;;;;;;;;;;;;;;;;;;;;
2022/06/15 05:12:05;;;;;;;8.93;3.90;;;17.00;99.90;;;16.57;81.04;101754.38;4788697;29;21541;-76
2022/06/15 05:14:56;;;;;;;11.15;4.18;;;17.10;99.90;;;16.77;81.07;101763.88;4746519;29;20197;-77
2022/06/15 05:17:25;;;;;;;14.77;4.30;;;17.30;99.90;;;17.15;80.17;101762.69;4826363;28;20040;-77
2022/06/15 05:20:55;;;;;;;19.80;4.18;;;17.40;99.90;;;17.19;80.01;101761.53;4833421;28;20043;-76
2022/06/15 05:23:46;;;;;;;12.55;3.67;;;;;;;17.50;78.29;101771.25;4795015;28;20213;-77
2022/06/15 05:30:16;;;;;;;9.48;3.47;;;18.00;99.90;;;17.63;77.00;101776.72;4666100;29;20529;-76
2022/06/15 05:32:56;;;;;;;10.80;3.70;;;;;;;17.44;77.79;101776.94;4643057;29;20405;-76
2022/06/15 05:35:34;;;;;;;12.75;3.88;;;17.90;99.90;;;17.25;78.46;101779.81;4697049;29;20470;-77
2022/06/15 05:38:12;;;;;;;14.02;3.63;;;17.80;99.90;;;17.08;79.17;101782.59;4737876;29;20151;-76
2022/06/15 05:43:44;;;;;;;13.95;4.65;;;17.60;99.90;;;16.83;80.89;101780.47;4769794;29;20045;-77
2022/06/15 05:46:26;;;;;;;11.32;3.60;;;17.50;99.90;;;16.71;81.76;101772.19;4892963;28;20520;-76
2022/06/15 05:48:55;;;;;;;13.43;3.95;;;17.40;99.90;;;16.61;82.62;101777.19;4934319;28;20784;-76
2022/06/15 05:51:21;;;;;;;12.73;3.78;;;17.30;99.90;;;16.53;83.64;101773.22;4919112;28;20042;-77
2022/06/15 05:53:52;;;;;;;12.77;3.42;;;17.30;99.90;;;16.49;83.41;101772.53;4954377;28;20083;-76
2022/06/15 05:56:18;;;;;;;15.23;3.70;;;17.30;99.90;;;16.54;84.50;101774.94;4961320;28;20885;-77
2022/06/15 05:58:45;;;;;;;15.85;3.63;;;17.30;99.90;;;16.61;84.30;101773.66;4975835;28;20034;-77
2022/06/15 06:01:18;;;;;;;12.88;3.60;;;17.30;99.90;;;16.70;84.50;101780.28;4961475;28;20479;-77
2022/06/15 06:03:44;;;;;;;9.38;3.45;;;17.40;99.90;;;16.79;83.90;101772.63;4953792;28;20123;-76
2022/06/15 06:06:11;;;;;;;12.23;3.28;;;17.50;99.90;;;16.89;83.34;101774.78;4930995;28;20031;-78
2022/06/15 06:08:44;;;;;;;10.63;3.95;;;17.60;99.90;;;16.97;83.04;101768.09;4941722;28;20046;-77
2022/06/15 06:11:10;;;;;;;12.35;3.78;;;17.70;99.90;;;17.01;82.58;101777.63;4941349;28;20029;-76
2022/06/15 06:13:36;;;;;;;10.30;4.05;;;17.70;99.90;;;17.09;82.33;101774.53;4930615;28;20040;-77
2022/06/15 06:16:20;;;;;;;12.68;3.47;;;;;;;17.18;82.06;101773.16;4945394;23;20053;-77
2022/06/15 06:19:30;;;;;;;;;;;;;;;;;;;;;
2022/06/15 06:22:14;;;;;;;9.65;3.30;;;;;;;17.59;81.34;101768.03;4860261;28;21535;-77
2022/06/15 06:24:40;;;;;;;8.30;2.97;;;18.20;99.90;;;17.83;79.72;101772.88;4918013;28;20086;-77
2022/06/15 06:27:07;;;;;;;12.02;2.75;;;18.40;99.90;;;18.09;78.68;101779.28;4968806;28;20112;-76
2022/06/15 06:29:34;;;;;;;11.70;3.42;;;18.60;99.90;;;18.26;77.70;101775.56;4967538;28;20108;-77
2022/06/15 06:32:02;;;;;;;13.88;3.63;;;18.80;99.90;;;18.46;77.38;101776.97;4966768;28;20422;-76
2022/06/15 06:34:31;;;;;;;8.27;3.17;;;19.00;99.90;;;18.67;76.71;101774.75;4963779;28;20498;-77
2022/06/15 06:37:03;;;;;;;10.60;3.13;;;19.20;99.90;;;18.91;75.15;101784.84;4968700;28;20056;-77
2022/06/15 06:39:31;;;;;;;11.30;3.25;;;19.40;99.90;;;19.16;75.41;101789.44;4968099;28;20034;-77
2022/06/15 06:42:00;;;;;;;15.60;3.30;;;19.60;99.90;;;19.44;74.69;101783.97;4983726;28;20071;-77
2022/06/15 06:44:26;;;;;;;11.45;2.92;;;19.70;99.90;;;19.74;73.59;101785.56;4973814;28;20386;-76
2022/06/15 06:46:53;;;;;;;14.27;2.80;;;20.20;99.90;;;20.09;71.98;101787.59;4970654;28;20044;-76
2022/06/15 06:49:21;;;;;;;15.57;3.15;;;20.50;99.90;;;20.33;70.33;101790.34;4960079;28;20099;-76
2022/06/15 06:51:48;;;;;;;13.60;3.50;;;20.70;99.90;;;20.48;69.28;101788.41;4951763;28;20063;-77
2022/06/15 06:54:20;;;;;;;13.77;3.60;;;20.70;99.90;;;20.51;68.95;101785.50;4976664;28;20033;-76
2022/06/15 06:56:47;;;;;;;11.55;3.25;;;20.90;99.90;;;20.59;68.94;101791.19;4938336;23;20046;-78
2022/06/15 06:59:15;;;;;;;8.98;2.85;;;21.00;99.90;;;20.56;68.17;101793.19;4955402;28;20018;-76
2022/06/15 07:01:44;;;;;;;15.88;3.10;;;21.00;99.90;;;20.53;68.19;101782.72;5000418;28;20119;-77
2022/06/15 07:04:14;;;;;;;9.88;3.08;;;21.10;99.90;;;20.58;68.50;101786.81;5006545;28;20060;-76
2022/06/15 07:06:41;;;;;;;18.98;3.40;;;21.10;99.90;;;20.60;68.18;101798.25;4973173;28;20056;-76
2022/06/15 07:09:07;;;;;;;10.80;2.70;;;20.90;99.90;;;20.40;69.12;101796.97;4968898;28;20045;-76
2022/06/15 07:11:34;;;;;;;14.25;3.05;;;21.00;99.90;;;20.46;69.04;101796.53;4963866;28;20548;-76
2022/06/15 07:14:00;;;;;;;16.08;3.58;;;21.00;99.90;;;20.58;68.90;101788.63;4987363;28;20041;-76
2022/06/15 07:16:26;;;;;;;17.15;3.40;;;21.10;99.90;;;20.68;67.85;101803.06;5005000;28;20022;-76
2022/06/15 07:18:53;;;;;;;14.95;3.00;;;21.20;99.90;;;20.81;66.73;101803.88;4969161;28;20040;-76
2022/06/15 07:21:23;;;;;;;21.35;3.65;;;21.30;99.90;;;20.92;66.28;101805.75;4975900;28;20030;-76
2022/06/15 07:23:55;;;;;;;9.48;2.65;;;21.40;99.90;;;20.97;66.15;101806.28;4969392;28;20099;-76
2022/06/15 07:26:30;;;;;;;12.63;2.80;;;21.40;99.90;;;20.98;66.03;101807.13;4954921;28;20052;-76
2022/06/15 07:28:57;;;;;;;12.13;3.10;;;21.50;99.90;;;21.03;65.84;101813.00;4995479;28;20401;-76
2022/06/15 07:31:31;;;;;;;9.48;2.65;;;21.50;99.90;;;21.05;65.53;101811.91;4989300;28;20110;-76
2022/06/15 07:33:57;;;;;;;13.43;2.78;;;21.50;99.90;;;21.00;65.54;101821.28;4987624;28;20049;-76
2022/06/15 07:36:24;;;;;;;15.07;2.63;;;21.50;99.90;;;20.89;65.12;101814.03;4992386;28;20052;-76
2022/06/15 07:38:53;;;;;;;12.85;2.80;;;21.50;99.90;;;20.94;65.38;101817.22;4980837;28;20025;-76
2022/06/15 07:41:22;;;;;;;8.93;2.60;;;21.50;99.90;;;21.02;65.08;101819.34;4987486;28;20040;-76
2022/06/15 07:43:49;;;;;;;8.55;2.58;;;21.60;99.90;;;21.21;64.20;101827.72;4966590;28;20034;-76
2022/06/15 07:46:16;;;;;;;11.23;2.85;;;21.70;99.90;;;21.41;63.75;101823.56;4959328;28;20112;-76
2022/06/15 07:51:36;;;;;;;11.05;2.60;;;22.00;99.90;;;21.76;62.79;101835.28;4971181;28;20037;-76
2022/06/15 07:54:09;;;;;;;10.48;2.90;;;22.20;99.90;;;21.99;61.87;101833.50;4987066;28;20401;-76
2022/06/15 07:56:37;;;;;;;12.38;2.53;;;22.40;99.90;;;22.12;60.57;101839.63;4973814;28;20713;-76
2022/06/15 07:59:03;;;;;;;9.07;2.63;;;22.50;99.90;;;22.08;60.17;101840.84;4968905;28;20057;-77
2022/06/15 08:01:29;;;;;;;11.07;2.95;;;22.60;99.90;;;22.16;59.58;101843.78;4993481;28;20034;-76
2022/06/15 08:03:55;;;;;;;9.75;2.60;;;22.60;99.90;;;22.27;59.34;101846.50;4976077;28;20080;-76
2022/06/15 08:06:22;;;;;;;;;;;22.70;99.90;;;22.62;58.72;101845.53;4994176;28;20029;-76
2022/06/15 08:08:48;;;;;;;7.93;2.30;;;23.00;99.90;;;23.01;57.20;101855.91;4942343;28;21093;-76
2022/06/15 08:11:16;;;;;;;9.60;2.22;;;23.20;99.90;;;23.23;55.73;101849.59;4976852;28;20044;-76
2022/06/15 08:13:42;;;;;;;6.88;2.80;;;23.60;99.90;;;23.76;55.02;101860.44;4952228;28;20045;-76
2022/06/15 08:16:09;;;;;;;6.78;2.25;;;24.00;99.90;;;24.07;54.75;101855.94;4991205;28;20026;-76
2022/06/15 08:18:44;;;;;;;9.57;2.30;;;24.30;99.90;;;24.29;53.66;101868.41;4969301;28;20113;-77
2022/06/15 08:21:17;;;;;;;10.02;2.38;;;24.50;99.90;;;24.42;51.48;101864.63;4994524;28;20502;-76
2022/06/15 08:23:46;;;;;;;8.57;1.85;;;24.60;98.50;;;24.44;50.97;101874.28;4931239;28;20056;-76
2022/06/15 08:26:18;;;;;;;10.27;2.03;;;24.80;99.90;;;24.74;51.16;101865.38;4981794;28;20544;-76
2022/06/15 08:28:51;;;;;;;4.80;1.40;;;25.00;97.90;;;24.91;48.58;101879.19;4976299;28;20072;-76
2022/06/15 08:31:18;;;;;;;7.03;1.80;;;25.10;97.40;;;25.10;48.39;101879.22;4935641;28;20036;-76
2022/06/15 08:33:44;;;;;;;7.32;1.60;;;25.30;95.90;;;25.27;45.58;101890.34;4986007;28;20056;-76
2022/06/15 08:36:12;;;;;;;7.85;1.48;;;25.40;93.10;;;25.08;44.70;101894.69;4990481;28;20033;-76
2022/06/15 08:38:39;;;;;;;6.80;1.73;;;25.50;95.10;;;25.25;45.67;101885.13;4983668;28;20018;-76
2022/06/15 08:41:37;;;;;;;6.10;0.90;;;25.50;93.40;;;25.08;44.44;101889.28;4950697;28;20030;-77
2022/06/15 08:44:18;;;;;;;4.30;1.20;;;25.40;93.60;;;25.26;43.18;101905.66;4970823;28;20038;-77
2022/06/15 08:47:05;;;;;;;4.53;1.40;;;25.50;92.90;;;25.43;43.24;101906.84;4959763;28;20061;-76
2022/06/15 08:50:21;;;;;;;;;;;25.50;94.10;;;25.34;42.70;101907.69;4999937;28;20076;-76
2022/06/15 08:52:58;;;;;;;7.88;1.40;;;25.50;92.30;;;24.85;43.75;101912.06;4969879;28;19905;-77
2022/06/15 08:55:32;;;;;;;6.00;1.35;;;24.80;90.90;;;23.81;44.67;101906.59;4999020;28;20502;-76
2022/06/15 08:58:29;;;;;;;7.80;1.50;;;24.40;93.40;;;23.41;45.46;101896.47;4968082;28;20045;-76
2022/06/15 09:01:07;;;;;;;4.23;1.20;;;24.00;93.50;;;23.03;46.27;101889.69;4969283;28;20446;-76
2022/06/15 09:04:13;;;;;;;12.40;2.05;;;23.50;93.30;;;22.39;46.49;101892.13;4992531;28;20345;-76
2022/06/15 09:07:17;;;;;;;6.88;2.13;;;23.00;93.10;;;21.64;47.84;101890.66;4993000;28;20612;-76
2022/06/15 09:10:28;;;;;;;4.72;1.63;;;22.50;94.50;;;21.09;47.74;101891.06;4966716;28;20507;-76
2022/06/15 09:13:27;;;;;;;4.15;1.13;;;21.80;94.10;;;20.35;48.33;101886.53;4992587;28;20060;-76
2022/06/15 09:16:22;;;;;;;13.18;3.20;;;21.30;94.60;;;20.11;49.50;101887.28;4991823;28;20045;-76
2022/06/15 09:19:06;;;;;;;5.93;1.00;;;21.10;95.70;;;19.95;50.64;101870.56;4975252;28;20490;-76
2022/06/15 09:22:22;;;;;;;10.30;2.03;;;20.80;95.10;;;19.74;50.04;101880.88;4954358;28;20113;-76
2022/06/15 09:25:09;;;;;;;11.93;2.40;;;20.70;96.10;;;19.83;51.05;101883.78;4892937;28;20139;-76
2022/06/15 09:28:01;;;;;;;2.75;1.33;;;20.60;94.20;;;19.81;48.84;101890.22;4887558;28;20043;-77
2022/06/15 09:30:37;;;;;;;7.03;1.48;;;20.60;95.10;;;19.72;49.67;101902.38;4954114;28;20042;-76
2022/06/15 09:33:29;;;;;;;7.15;2.10;;;20.40;94.00;;;19.51;49.01;101898.41;4974351;28;20029;-76
2022/06/15 09:36:04;;;;;;;12.25;1.42;;;20.30;94.80;;;19.51;50.46;101893.06;4992680;28;20091;-76
2022/06/15 09:38:32;;;;;;;7.70;1.70;;;20.30;96.50;;;19.66;51.60;101900.06;4982013;28;20507;-77
2022/06/15 09:41:16;;;;;;;7.93;1.10;;;20.50;96.40;;;19.99;50.67;101898.78;4960723;28;20024;-76
2022/06/15 09:44:26;;;;;;;5.25;1.30;;;20.80;96.00;;;20.88;50.02;101906.00;4969276;28;20441;-76
2022/06/15 09:47:07;;;;;;;6.03;1.20;;;21.40;95.20;;;21.63;46.75;101921.97;4987627;28;20026;-76
2022/06/15 09:49:56;;;;;;;2.22;0.93;;;22.10;94.10;;;22.16;42.93;101939.47;4966534;28;20105;-77
2022/06/15 09:52:37;;;;;;;3.45;0.90;;;22.60;92.50;;;22.63;42.93;101948.38;4981595;28;20071;-77
2022/06/15 09:55:11;;;;;;;3.30;1.05;;;23.00;92.40;;;23.01;43.35;101950.75;4954982;28;20034;-77
2022/06/15 09:57:42;;;;;;;3.38;1.23;;;23.40;92.40;;;23.44;43.07;101952.66;4982861;28;20041;-77
2022/06/15 10:00:21;;;;;;;5.13;1.58;;;23.80;92.60;;;23.89;42.69;101952.53;4953756;28;20042;-77
2022/06/15 10:02:59;;;;;;;5.25;1.30;;;24.30;91.90;;;24.36;42.01;101955.72;4998497;28;20030;-76
2022/06/15 10:05:35;;;;;;;4.88;1.13;;;24.80;90.40;;;24.73;41.74;101951.69;4992655;28;20033;-77
2022/06/15 10:08:08;;;;;;;3.27;0.93;;;25.10;90.20;;;24.92;41.29;101957.19;4949365;28;20025;-77
2022/06/15 10:10:52;;;;;;;3.65;1.15;;;25.40;90.90;;;25.17;39.88;101957.69;4999271;28;20119;-77
2022/06/15 10:13:20;;;;;;;2.28;0.93;;;25.60;89.00;;;25.35;39.10;101966.81;4972309;28;20042;-76
2022/06/15 10:16:24;;;;;;;5.55;1.20;;;25.70;89.50;;;25.42;39.78;101963.59;5000562;28;20229;-77
2022/06/15 10:19:00;;;;;;;3.13;1.10;;;25.80;87.20;;;25.46;39.23;101965.84;4959728;28;20128;-77
2022/06/15 10:21:35;;;;;;;2.30;1.00;;;25.80;86.10;;;25.38;38.97;101971.13;4982464;28;20041;-78
2022/06/15 10:24:40;;;;;;;2.10;0.90;;;25.90;87.40;;;25.37;36.86;101972.94;4957762;28;20099;-78
2022/06/15 10:27:41;;;;;;;4.03;1.08;;;25.90;84.60;;;25.31;37.95;101973.50;4972631;28;20034;-77
2022/06/15 10:30:07;;;;;;;5.68;1.27;;;25.70;86.50;;;25.02;39.69;101970.69;4977535;28;20046;-77
2022/06/15 10:32:58;;;;;;;4.55;1.00;;;25.60;88.40;;;25.01;40.05;101962.72;4962628;28;20037;-77
2022/06/15 10:35:28;;;;;;;2.80;1.02;;;25.50;86.60;;;24.80;40.11;101965.50;4971540;28;20550;-77
2022/06/15 10:38:08;;;;;;;2.53;1.00;;;25.40;87.50;;;25.02;40.07;101964.44;4976834;28;20065;-77
2022/06/15 10:40:38;;;;;;;4.10;1.30;;;25.30;84.80;;;24.80;39.22;101969.03;4962597;28;20022;-76
2022/06/15 10:43:20;;;;;;;6.97;1.10;;;25.30;84.60;;;24.73;38.75;101968.72;4986066;28;20028;-78
2022/06/15 10:46:21;;;;;;;3.60;1.10;;;25.30;86.50;;;24.94;38.56;101962.41;4998887;28;20045;-76
2022/06/15 10:48:57;;;;;;;4.00;1.00;;;25.50;89.20;;;25.31;40.15;101959.16;4953145;28;20141;-77
2022/06/15 10:51:38;;;;;;;;;;;24.00;90.00;;;25.57;38.29;101970.28;4987549;28;20030;-77
2022/06/15 11:03:25;;;;;;;10.75;2.60;;;24.60;90.70;;;23.36;43.98;101909.41;4947219;28;20766;-77
2022/06/15 11:06:01;;;;;;;5.22;1.80;;;24.20;91.00;;;23.20;44.69;101901.75;4943237;28;20018;-77
2022/06/15 11:08:34;;;;;;;6.60;1.55;;;23.70;90.60;;;22.64;44.92;101908.00;4985089;28;20072;-76
2022/06/15 11:11:27;;;;;;;3.67;1.48;;;23.40;90.90;;;22.48;44.60;101913.72;4977121;28;20037;-77
2022/06/15 11:14:12;;;;;;;3.85;1.48;;;23.10;90.70;;;22.27;44.79;101905.53;4974928;28;20022;-77
2022/06/15 11:19:29;;;;;;;4.85;1.70;;;23.10;92.40;;;22.40;46.19;101899.22;4970899;28;20133;-76
2022/06/15 11:22:06;;;;;;;8.57;1.50;;;22.90;93.70;;;22.42;47.43;101894.56;4995427;28;20520;-75
2022/06/15 11:24:42;;;;;;;6.13;1.60;;;23.00;93.20;;;22.53;47.35;101889.22;4978413;28;20791;-75
2022/06/15 11:28:04;;;;;;;3.30;1.40;;;23.10;93.80;;;22.78;47.00;101881.88;4971555;28;20062;-75
2022/06/15 11:30:50;;;;;;;5.50;1.73;;;23.20;93.10;;;22.70;46.03;101888.72;4946187;28;20101;-75
2022/06/15 11:33:34;;;;;;;7.93;1.40;;;23.40;93.20;;;23.10;45.58;101888.22;4969672;28;20037;-75
2022/06/15 11:36:51;;;;;;;9.18;1.60;;;23.70;91.30;;;23.39;43.28;101901.13;4987518;28;20268;-75
2022/06/15 11:39:35;;;;;;;3.33;1.17;;;23.70;90.70;;;23.21;42.80;101899.94;4944645;28;20037;-75
2022/06/15 11:42:12;;;;;;;5.28;1.35;;;23.80;91.00;;;23.28;42.25;101907.38;4977021;28;20026;-76
2022/06/15 11:44:44;;;;;;;5.10;1.30;;;23.80;90.90;;;23.36;43.61;101909.41;4977881;28;20030;-75
2022/06/15 11:47:41;;;;;;;2.75;1.30;;;23.90;91.10;;;23.84;42.55;101903.63;4993279;28;20045;-75
2022/06/15 11:50:26;;;;;;;4.18;1.40;;;24.40;90.50;;;24.52;41.10;101914.03;4979159;28;20033;-76